sensor_id;sensor_type;location;lat;lon;timestamp;pressure;altitude;pressure_sealevel;temperature;humidity
50123;BME280;36021;48.670;6.184;2023-02-10T00:03:31;100989.47;;;2.28;100.00
50123;BME280;36021;48.670;6.184;2023-02-10T00:05:57;100993.47;;;2.10;100.00
50123;BME280;36021;48.670;6.184;2023-02-10T00:08:22;100989.28;;;1.93;100.00
50123;BME280;36021;48.670;6.184;2023-02-10T00:10:48;100987.69;;;1.84;100.00
50123;BME280;36021;48.670;6.184;2023-02-10T00:13:14;100985.19;;;1.83;100.00
50123;BME280;36021;48.670;6.184;2023-02-10T00:15:39;100982.66;;;1.81;100.00
50123;BME280;36021;48.670;6.184;2023-02-10T00:18:05;100978.91;;;1.82;100.00
50123;BME280;36021;48.670;6.184;2023-02-10T00:20:31;100978.00;;;1.96;100.00
50123;BME280;36021;48.670;6.184;2023-02-10T00:22:56;100989.25;;;2.08;100.00
50123;BME280;36021;48.670;6.184;2023-02-10T00:25:22;100989.34;;;2.15;100.00
50123;BME280;36021;48.670;6.184;2023-02-10T00:27:49;100991.50;;;2.19;100.00
50123;BME280;36021;48.670;6.184;2023-02-10T00:30:16;100997.19;;;2.09;100.00
50123;BME280;36021;48.670;6.184;2023-02-10T00:32:42;100990.75;;;2.10;100.00
50123;BME280;36021;48.670;6.184;2023-02-10T00:35:08;101005.88;;;1.98;100.00
50123;BME280;36021;48.670;6.184;2023-02-10T00:37:33;101008.94;;;2.10;100.00
50123;BME280;36021;48.670;6.184;2023-02-10T00:39:59;101006.03;;;2.12;100.00
50123;BME280;36021;48.670;6.184;2023-02-10T00:42:25;100999.72;;;1.61;100.00
50123;BME280;36021;48.670;6.184;2023-02-10T00:44:51;101008.72;;;1.61;100.00
50123;BME280;36021;48.670;6.184;2023-02-10T00:47:18;101001.44;;;1.47;100.00
50123;BME280;36021;48.670;6.184;2023-02-10T00:49:43;101001.63;;;1.60;100.00
50123;BME280;36021;48.670;6.184;2023-02-10T00:52:09;101001.03;;;1.65;100.00
50123;BME280;36021;48.670;6.184;2023-02-10T00:54:35;101003.84;;;1.56;100.00
50123;BME280;36021;48.670;6.184;2023-02-10T00:57:02;101008.16;;;1.66;100.00
50123;BME280;36021;48.670;6.184;2023-02-10T00:59:30;101015.09;;;1.68;100.00
50123;BME280;36021;48.670;6.184;2023-02-10T01:01:58;101010.75;;;1.74;100.00
50123;BME280;36021;48.670;6.184;2023-02-10T01:04:25;101011.91;;;1.79;100.00
50123;BME280;36021;48.670;6.184;2023-02-10T01:06:52;101012.28;;;1.76;100.00
50123;BME280;36021;48.670;6.184;2023-02-10T01:09:18;101017.22;;;1.87;100.00
50123;BME280;36021;48.670;6.184;2023-02-10T01:11:43;101023.72;;;1.86;100.00
50123;BME280;36021;48.670;6.184;2023-02-10T01:14:09;101022.56;;;1.81;100.00
50123;BME280;36021;48.670;6.184;2023-02-10T01:16:34;101024.91;;;1.84;100.00
50123;BME280;36021;48.670;6.184;2023-02-10T01:19:00;101035.50;;;1.64;100.00
50123;BME280;36021;48.670;6.184;2023-02-10T01:21:26;101030.06;;;1.64;100.00
50123;BME280;36021;48.670;6.184;2023-02-10T01:23:52;101028.97;;;1.44;100.00
50123;BME280;36021;48.670;6.184;2023-02-10T01:26:19;101032.44;;;1.52;100.00
50123;BME280;36021;48.670;6.184;2023-02-10T01:28:44;101031.50;;;1.60;100.00
50123;BME280;36021;48.670;6.184;2023-02-10T01:31:11;101036.97;;;1.23;100.00
50123;BME280;36021;48.670;6.184;2023-02-10T01:33:39;101046.38;;;0.97;100.00
50123;BME280;36021;48.670;6.184;2023-02-10T01:36:07;101047.81;;;0.85;100.00
50123;BME280;36021;48.670;6.184;2023-02-10T01:38:33;101047.81;;;0.85;100.00
50123;BME280;36021;48.670;6.184;2023-02-10T01:40:59;101041.81;;;1.13;100.00
50123;BME280;36021;48.670;6.184;2023-02-10T01:43:25;101040.28;;;1.33;100.00
50123;BME280;36021;48.670;6.184;2023-02-10T01:45:52;101031.84;;;1.42;100.00
50123;BME280;36021;48.670;6.184;2023-02-10T01:48:17;101031.56;;;1.52;100.00
50123;BME280;36021;48.670;6.184;2023-02-10T01:53:11;101044.28;;;1.22;100.00
50123;BME280;36021;48.670;6.184;2023-02-10T01:55:37;101048.91;;;1.36;100.00
50123;BME280;36021;48.670;6.184;2023-02-10T01:58:06;101039.09;;;1.50;100.00
50123;BME280;36021;48.670;6.184;2023-02-10T02:00:34;101047.44;;;1.63;100.00
50123;BME280;36021;48.670;6.184;2023-02-10T02:03:02;101047.69;;;1.68;100.00
50123;BME280;36021;48.670;6.184;2023-02-10T02:05:30;101052.19;;;1.76;100.00
50123;BME280;36021;48.670;6.184;2023-02-10T02:08:07;101038.41;;;1.77;100.00
50123;BME280;36021;48.670;6.184;2023-02-10T02:10:40;101045.66;;;1.70;100.00
50123;BME280;36021;48.670;6.184;2023-02-10T02:13:14;101032.91;;;1.56;100.00
50123;BME280;36021;48.670;6.184;2023-02-10T02:15:42;101040.38;;;1.54;100.00
50123;BME280;36021;48.670;6.184;2023-02-10T02:20:47;101047.38;;;1.19;100.00
50123;BME280;36021;48.670;6.184;2023-02-10T02:31:26;101042.41;;;1.23;100.00
50123;BME280;36021;48.670;6.184;2023-02-10T02:33:53;101042.25;;;1.24;100.00
50123;BME280;36021;48.670;6.184;2023-02-10T02:38:57;101051.56;;;1.22;100.00
50123;BME280;36021;48.670;6.184;2023-02-10T02:41:24;101053.34;;;1.15;100.00
50123;BME280;36021;48.670;6.184;2023-02-10T02:43:51;101047.56;;;1.18;100.00
50123;BME280;36021;48.670;6.184;2023-02-10T02:49:13;101059.44;;;1.17;100.00
50123;BME280;36021;48.670;6.184;2023-02-10T02:54:26;101052.56;;;1.06;100.00
50123;BME280;36021;48.670;6.184;2023-02-10T02:59:55;101044.63;;;1.04;100.00
50123;BME280;36021;48.670;6.184;2023-02-10T03:02:20;101046.88;;;1.01;100.00
50123;BME280;36021;48.670;6.184;2023-02-10T03:04:48;101047.69;;;1.01;100.00
50123;BME280;36021;48.670;6.184;2023-02-10T03:07:14;101045.59;;;0.89;100.00
50123;BME280;36021;48.670;6.184;2023-02-10T03:09:41;101050.00;;;0.90;100.00
50123;BME280;36021;48.670;6.184;2023-02-10T03:12:08;101054.41;;;0.91;100.00
50123;BME280;36021;48.670;6.184;2023-02-10T03:14:34;101053.56;;;0.90;100.00
50123;BME280;36021;48.670;6.184;2023-02-10T03:16:59;101052.59;;;0.83;100.00
50123;BME280;36021;48.670;6.184;2023-02-10T03:19:25;101052.97;;;0.80;100.00
50123;BME280;36021;48.670;6.184;2023-02-10T03:21:50;101049.66;;;0.70;100.00
50123;BME280;36021;48.670;6.184;2023-02-10T03:24:16;101052.72;;;0.67;100.00
50123;BME280;36021;48.670;6.184;2023-02-10T03:26:44;101053.09;;;0.64;100.00
50123;BME280;36021;48.670;6.184;2023-02-10T03:29:10;101043.47;;;0.62;100.00
50123;BME280;36021;48.670;6.184;2023-02-10T03:31:35;101054.06;;;0.71;100.00
50123;BME280;36021;48.670;6.184;2023-02-10T03:34:01;101051.88;;;0.89;100.00
50123;BME280;36021;48.670;6.184;2023-02-10T03:36:26;101051.22;;;0.87;100.00
50123;BME280;36021;48.670;6.184;2023-02-10T03:38:52;101047.38;;;0.82;100.00
50123;BME280;36021;48.670;6.184;2023-02-10T03:41:17;101050.25;;;0.80;100.00
50123;BME280;36021;48.670;6.184;2023-02-10T03:43:43;101053.84;;;0.95;100.00
50123;BME280;36021;48.670;6.184;2023-02-10T03:46:09;101056.44;;;0.89;100.00
50123;BME280;36021;48.670;6.184;2023-02-10T03:48:35;101054.53;;;0.97;100.00
50123;BME280;36021;48.670;6.184;2023-02-10T03:51:02;101052.34;;;0.93;100.00
50123;BME280;36021;48.670;6.184;2023-02-10T03:53:29;101063.03;;;0.94;100.00
50123;BME280;36021;48.670;6.184;2023-02-10T03:55:55;101071.06;;;0.88;100.00
50123;BME280;36021;48.670;6.184;2023-02-10T03:58:22;101067.19;;;0.82;100.00
50123;BME280;36021;48.670;6.184;2023-02-10T04:00:47;101073.34;;;0.76;100.00
50123;BME280;36021;48.670;6.184;2023-02-10T04:03:14;101076.41;;;0.73;100.00
50123;BME280;36021;48.670;6.184;2023-02-10T04:05:39;101083.53;;;0.74;100.00
50123;BME280;36021;48.670;6.184;2023-02-10T04:08:05;101084.81;;;0.86;100.00
50123;BME280;36021;48.670;6.184;2023-02-10T04:10:31;101084.63;;;0.65;100.00
50123;BME280;36021;48.670;6.184;2023-02-10T04:12:56;101086.63;;;0.71;100.00
50123;BME280;36021;48.670;6.184;2023-02-10T04:15:22;101096.31;;;0.88;100.00
50123;BME280;36021;48.670;6.184;2023-02-10T04:17:47;101103.81;;;0.86;100.00
50123;BME280;36021;48.670;6.184;2023-02-10T04:20:13;101106.47;;;0.94;100.00
50123;BME280;36021;48.670;6.184;2023-02-10T04:22:39;101102.94;;;0.86;100.00
50123;BME280;36021;48.670;6.184;2023-02-10T04:25:05;101106.63;;;0.70;100.00
50123;BME280;36021;48.670;6.184;2023-02-10T04:27:31;101107.13;;;0.43;100.00
50123;BME280;36021;48.670;6.184;2023-02-10T04:29:57;101108.53;;;0.39;100.00
50123;BME280;36021;48.670;6.184;2023-02-10T04:32:23;101110.09;;;0.56;100.00
50123;BME280;36021;48.670;6.184;2023-02-10T04:34:48;101108.66;;;0.45;100.00
50123;BME280;36021;48.670;6.184;2023-02-10T04:37:14;101110.81;;;0.50;100.00
50123;BME280;36021;48.670;6.184;2023-02-10T04:39:40;101108.44;;;0.55;100.00
50123;BME280;36021;48.670;6.184;2023-02-10T04:42:05;101108.09;;;0.50;100.00
50123;BME280;36021;48.670;6.184;2023-02-10T04:44:31;101110.75;;;0.35;100.00
50123;BME280;36021;48.670;6.184;2023-02-10T04:46:57;101111.66;;;0.50;100.00
50123;BME280;36021;48.670;6.184;2023-02-10T04:49:23;101111.88;;;0.49;100.00
50123;BME280;36021;48.670;6.184;2023-02-10T04:51:49;101111.44;;;0.60;100.00
50123;BME280;36021;48.670;6.184;2023-02-10T04:54:15;101118.94;;;0.58;100.00
50123;BME280;36021;48.670;6.184;2023-02-10T04:56:42;101127.31;;;0.71;100.00
50123;BME280;36021;48.670;6.184;2023-02-10T04:59:08;101133.41;;;0.73;100.00
50123;BME280;36021;48.670;6.184;2023-02-10T05:01:34;101127.63;;;0.76;100.00
50123;BME280;36021;48.670;6.184;2023-02-10T05:04:01;101120.25;;;0.62;100.00
50123;BME280;36021;48.670;6.184;2023-02-10T05:06:26;101120.59;;;0.28;100.00
50123;BME280;36021;48.670;6.184;2023-02-10T05:08:52;101127.31;;;0.40;100.00
50123;BME280;36021;48.670;6.184;2023-02-10T05:11:18;101122.22;;;0.45;100.00
50123;BME280;36021;48.670;6.184;2023-02-10T05:13:43;101124.75;;;0.16;100.00
50123;BME280;36021;48.670;6.184;2023-02-10T05:16:12;101129.66;;;0.13;100.00
50123;BME280;36021;48.670;6.184;2023-02-10T05:18:38;101138.03;;;0.34;100.00
50123;BME280;36021;48.670;6.184;2023-02-10T05:21:07;101137.28;;;0.48;100.00
50123;BME280;36021;48.670;6.184;2023-02-10T05:23:33;101140.50;;;0.51;100.00
50123;BME280;36021;48.670;6.184;2023-02-10T05:25:59;101134.09;;;0.44;100.00
50123;BME280;36021;48.670;6.184;2023-02-10T05:28:25;101139.94;;;0.56;100.00
50123;BME280;36021;48.670;6.184;2023-02-10T05:30:51;101145.81;;;0.68;100.00
50123;BME280;36021;48.670;6.184;2023-02-10T05:33:18;101155.78;;;0.75;100.00
50123;BME280;36021;48.670;6.184;2023-02-10T05:35:44;101159.81;;;0.79;100.00
50123;BME280;36021;48.670;6.184;2023-02-10T05:38:09;101146.47;;;0.70;100.00
50123;BME280;36021;48.670;6.184;2023-02-10T05:40:35;101149.56;;;0.67;100.00
50123;BME280;36021;48.670;6.184;2023-02-10T05:43:01;101152.13;;;0.60;100.00
50123;BME280;36021;48.670;6.184;2023-02-10T05:45:27;101158.13;;;0.47;100.00
50123;BME280;36021;48.670;6.184;2023-02-10T05:47:52;101163.41;;;0.49;100.00
50123;BME280;36021;48.670;6.184;2023-02-10T05:50:18;101164.97;;;0.35;100.00
50123;BME280;36021;48.670;6.184;2023-02-10T05:52:44;101168.41;;;0.29;100.00
50123;BME280;36021;48.670;6.184;2023-02-10T05:55:09;101163.78;;;0.30;100.00
50123;BME280;36021;48.670;6.184;2023-02-10T05:57:36;101163.13;;;0.28;100.00
50123;BME280;36021;48.670;6.184;2023-02-10T06:00:06;101165.22;;;0.18;100.00
50123;BME280;36021;48.670;6.184;2023-02-10T06:02:41;101173.97;;;0.28;100.00
50123;BME280;36021;48.670;6.184;2023-02-10T06:05:07;101181.56;;;0.40;100.00
50123;BME280;36021;48.670;6.184;2023-02-10T06:07:33;101177.97;;;0.48;100.00
50123;BME280;36021;48.670;6.184;2023-02-10T06:09:59;101183.19;;;0.58;100.00
50123;BME280;36021;48.670;6.184;2023-02-10T06:12:25;101182.03;;;0.44;100.00
50123;BME280;36021;48.670;6.184;2023-02-10T06:14:50;101176.63;;;0.44;100.00
50123;BME280;36021;48.670;6.184;2023-02-10T06:17:16;101169.56;;;0.27;100.00
50123;BME280;36021;48.670;6.184;2023-02-10T06:19:41;101180.06;;;0.30;100.00
50123;BME280;36021;48.670;6.184;2023-02-10T06:22:07;101177.81;;;0.41;100.00
50123;BME280;36021;48.670;6.184;2023-02-10T06:24:34;101171.34;;;0.04;100.00
50123;BME280;36021;48.670;6.184;2023-02-10T06:27:00;101174.88;;;0.12;100.00
50123;BME280;36021;48.670;6.184;2023-02-10T06:29:27;101174.50;;;0.23;100.00
50123;BME280;36021;48.670;6.184;2023-02-10T06:31:53;101170.63;;;0.26;100.00
50123;BME280;36021;48.670;6.184;2023-02-10T06:34:19;101171.41;;;0.34;100.00
50123;BME280;36021;48.670;6.184;2023-02-10T06:36:44;101172.13;;;0.28;100.00
50123;BME280;36021;48.670;6.184;2023-02-10T06:39:10;101164.25;;;-0.06;100.00
50123;BME280;36021;48.670;6.184;2023-02-10T06:41:35;101171.03;;;-0.02;100.00
50123;BME280;36021;48.670;6.184;2023-02-10T06:44:01;101170.72;;;-0.15;100.00
50123;BME280;36021;48.670;6.184;2023-02-10T06:46:27;101172.13;;;-0.43;100.00
50123;BME280;36021;48.670;6.184;2023-02-10T06:48:53;101170.94;;;-0.57;100.00
50123;BME280;36021;48.670;6.184;2023-02-10T06:51:18;101175.34;;;-0.47;100.00
50123;BME280;36021;48.670;6.184;2023-02-10T06:53:45;101175.16;;;-0.62;100.00
50123;BME280;36021;48.670;6.184;2023-02-10T06:56:12;101180.75;;;-0.80;100.00
50123;BME280;36021;48.670;6.184;2023-02-10T06:58:38;101186.84;;;-0.94;100.00
50123;BME280;36021;48.670;6.184;2023-02-10T07:01:10;101185.50;;;-0.90;100.00
50123;BME280;36021;48.670;6.184;2023-02-10T07:03:36;101183.94;;;-1.00;100.00
50123;BME280;36021;48.670;6.184;2023-02-10T07:06:02;101186.66;;;-1.09;100.00
50123;BME280;36021;48.670;6.184;2023-02-10T07:08:29;101186.13;;;-1.04;100.00
50123;BME280;36021;48.670;6.184;2023-02-10T07:10:54;101192.63;;;-0.73;100.00
50123;BME280;36021;48.670;6.184;2023-02-10T07:13:21;101197.34;;;-0.59;100.00
50123;BME280;36021;48.670;6.184;2023-02-10T07:15:47;101197.00;;;-0.56;100.00
50123;BME280;36021;48.670;6.184;2023-02-10T07:18:12;101195.31;;;-0.48;100.00
50123;BME280;36021;48.670;6.184;2023-02-10T07:20:39;101197.50;;;-0.44;100.00
50123;BME280;36021;48.670;6.184;2023-02-10T07:23:05;101201.91;;;-0.35;100.00
50123;BME280;36021;48.670;6.184;2023-02-10T07:25:30;101205.13;;;-0.39;100.00
50123;BME280;36021;48.670;6.184;2023-02-10T07:27:57;101204.28;;;-0.24;100.00
50123;BME280;36021;48.670;6.184;2023-02-10T07:30:22;101204.44;;;-0.25;100.00
50123;BME280;36021;48.670;6.184;2023-02-10T07:32:49;101206.09;;;-0.16;100.00
50123;BME280;36021;48.670;6.184;2023-02-10T07:35:15;101203.41;;;-0.24;100.00
50123;BME280;36021;48.670;6.184;2023-02-10T07:37:40;101208.00;;;-0.25;100.00
50123;BME280;36021;48.670;6.184;2023-02-10T07:40:06;101197.47;;;-0.12;100.00
50123;BME280;36021;48.670;6.184;2023-02-10T07:42:32;101209.50;;;-0.22;100.00
50123;BME280;36021;48.670;6.184;2023-02-10T07:45:11;101204.75;;;-0.04;100.00
50123;BME280;36021;48.670;6.184;2023-02-10T07:47:36;101208.16;;;-0.10;100.00
50123;BME280;36021;48.670;6.184;2023-02-10T07:50:02;101203.06;;;-0.13;100.00
50123;BME280;36021;48.670;6.184;2023-02-10T07:52:27;101205.91;;;0.02;100.00
50123;BME280;36021;48.670;6.184;2023-02-10T07:54:54;101206.22;;;0.07;100.00
50123;BME280;36021;48.670;6.184;2023-02-10T07:57:22;101195.66;;;0.28;100.00
50123;BME280;36021;48.670;6.184;2023-02-10T07:59:49;101193.72;;;0.83;100.00
50123;BME280;36021;48.670;6.184;2023-02-10T08:02:15;101198.88;;;1.46;100.00
50123;BME280;36021;48.670;6.184;2023-02-10T08:04:41;101201.03;;;1.88;100.00
50123;BME280;36021;48.670;6.184;2023-02-10T08:07:07;101191.69;;;2.05;100.00
50123;BME280;36021;48.670;6.184;2023-02-10T08:09:34;101196.38;;;2.41;100.00
50123;BME280;36021;48.670;6.184;2023-02-10T08:11:59;101202.09;;;2.60;100.00
50123;BME280;36021;48.670;6.184;2023-02-10T08:14:25;101197.97;;;2.65;100.00
50123;BME280;36021;48.670;6.184;2023-02-10T08:16:50;101199.50;;;2.88;100.00
50123;BME280;36021;48.670;6.184;2023-02-10T08:19:16;101198.78;;;3.15;100.00
50123;BME280;36021;48.670;6.184;2023-02-10T08:21:41;101202.41;;;3.65;100.00
50123;BME280;36021;48.670;6.184;2023-02-10T08:24:10;101195.81;;;4.36;100.00
50123;BME280;36021;48.670;6.184;2023-02-10T08:26:37;101197.16;;;4.53;100.00
50123;BME280;36021;48.670;6.184;2023-02-10T08:29:02;101197.06;;;4.34;100.00
50123;BME280;36021;48.670;6.184;2023-02-10T08:31:28;101202.09;;;4.71;100.00
50123;BME280;36021;48.670;6.184;2023-02-10T08:33:54;101208.44;;;5.52;100.00
50123;BME280;36021;48.670;6.184;2023-02-10T08:36:19;101194.31;;;7.42;100.00
50123;BME280;36021;48.670;6.184;2023-02-10T08:38:46;101198.19;;;9.24;100.00
50123;BME280;36021;48.670;6.184;2023-02-10T08:41:11;101189.53;;;10.73;100.00
50123;BME280;36021;48.670;6.184;2023-02-10T08:43:37;101189.69;;;11.63;97.82
50123;BME280;36021;48.670;6.184;2023-02-10T08:46:03;101186.16;;;12.13;91.34
50123;BME280;36021;48.670;6.184;2023-02-10T08:48:29;101186.53;;;12.76;85.07
50123;BME280;36021;48.670;6.184;2023-02-10T08:50:55;101187.66;;;13.40;83.15
50123;BME280;36021;48.670;6.184;2023-02-10T08:53:21;101191.09;;;14.90;76.30
50123;BME280;36021;48.670;6.184;2023-02-10T08:55:56;101181.63;;;15.68;58.20
50123;BME280;36021;48.670;6.184;2023-02-10T08:58:23;101184.16;;;16.20;61.70
50123;BME280;36021;48.670;6.184;2023-02-10T09:00:48;101185.88;;;17.80;56.39
50123;BME280;36021;48.670;6.184;2023-02-10T09:03:15;101185.03;;;18.76;46.97
50123;BME280;36021;48.670;6.184;2023-02-10T09:05:41;101187.91;;;18.37;44.23
50123;BME280;36021;48.670;6.184;2023-02-10T09:08:09;101185.16;;;17.59;44.38
50123;BME280;36021;48.670;6.184;2023-02-10T09:10:37;101184.91;;;17.99;43.18
50123;BME280;36021;48.670;6.184;2023-02-10T09:13:03;101185.47;;;18.88;43.16
50123;BME280;36021;48.670;6.184;2023-02-10T09:15:28;101187.03;;;18.07;42.86
50123;BME280;36021;48.670;6.184;2023-02-10T09:17:54;101181.50;;;20.11;47.29
50123;BME280;36021;48.670;6.184;2023-02-10T09:20:19;101183.75;;;21.01;41.96
50123;BME280;36021;48.670;6.184;2023-02-10T09:22:45;101183.16;;;21.94;36.38
50123;BME280;36021;48.670;6.184;2023-02-10T09:25:13;101175.91;;;22.68;36.90
50123;BME280;36021;48.670;6.184;2023-02-10T09:27:40;101179.41;;;22.21;34.41
50123;BME280;36021;48.670;6.184;2023-02-10T09:30:07;101175.13;;;21.88;34.87
50123;BME280;36021;48.670;6.184;2023-02-10T09:32:33;101184.78;;;18.96;37.23
50123;BME280;36021;48.670;6.184;2023-02-10T09:34:58;101186.50;;;17.17;43.60
50123;BME280;36021;48.670;6.184;2023-02-10T09:37:24;101189.44;;;16.37;56.36
50123;BME280;36021;48.670;6.184;2023-02-10T09:39:49;101189.19;;;15.88;64.44
50123;BME280;36021;48.670;6.184;2023-02-10T09:44:51;101193.16;;;15.20;86.20
50123;BME280;36021;48.670;6.184;2023-02-10T09:47:24;101193.84;;;14.85;80.14
50123;BME280;36021;48.670;6.184;2023-02-10T09:55:08;101197.16;;;13.49;85.33
50123;BME280;36021;48.670;6.184;2023-02-10T09:57:45;101198.44;;;13.64;86.37
50123;BME280;36021;48.670;6.184;2023-02-10T10:00:17;101203.88;;;14.17;82.01
50123;BME280;36021;48.670;6.184;2023-02-10T10:02:49;101197.81;;;16.11;62.07
50123;BME280;36021;48.670;6.184;2023-02-10T10:05:18;101192.59;;;17.74;50.91
50123;BME280;36021;48.670;6.184;2023-02-10T10:07:47;101192.91;;;19.40;41.77
50123;BME280;36021;48.670;6.184;2023-02-10T10:10:17;101191.69;;;21.40;38.79
50123;BME280;36021;48.670;6.184;2023-02-10T10:12:45;101191.31;;;21.68;35.05
50123;BME280;36021;48.670;6.184;2023-02-10T10:15:17;101197.25;;;20.71;36.96
50123;BME280;36021;48.670;6.184;2023-02-10T10:17:50;101191.78;;;20.34;38.32
50123;BME280;36021;48.670;6.184;2023-02-10T10:20:24;101199.78;;;21.14;39.01
50123;BME280;36021;48.670;6.184;2023-02-10T10:28:07;101202.97;;;22.87;32.78
50123;BME280;36021;48.670;6.184;2023-02-10T10:30:44;101194.72;;;22.37;36.24
50123;BME280;36021;48.670;6.184;2023-02-10T10:33:17;101198.22;;;24.90;33.08
50123;BME280;36021;48.670;6.184;2023-02-10T10:35:45;101202.25;;;22.28;33.60
50123;BME280;36021;48.670;6.184;2023-02-10T10:38:16;101204.97;;;21.34;34.50
50123;BME280;36021;48.670;6.184;2023-02-10T10:40:43;101192.00;;;24.07;35.92
50123;BME280;36021;48.670;6.184;2023-02-10T10:43:15;101199.13;;;22.74;32.00
50123;BME280;36021;48.670;6.184;2023-02-10T10:45:44;101195.66;;;24.33;32.48
50123;BME280;36021;48.670;6.184;2023-02-10T10:50:45;101196.78;;;23.55;35.91
50123;BME280;36021;48.670;6.184;2023-02-10T10:53:16;101194.50;;;24.00;39.02
50123;BME280;36021;48.670;6.184;2023-02-10T10:55:46;101187.28;;;25.47;31.01
50123;BME280;36021;48.670;6.184;2023-02-10T11:00:49;101190.41;;;21.59;33.98
50123;BME280;36021;48.670;6.184;2023-02-10T11:03:16;101188.56;;;22.88;35.00
50123;BME280;36021;48.670;6.184;2023-02-10T11:05:42;101188.50;;;23.93;33.20
50123;BME280;36021;48.670;6.184;2023-02-10T11:08:20;101185.56;;;24.96;33.26
50123;BME280;36021;48.670;6.184;2023-02-10T11:10:53;101192.22;;;23.36;30.70
50123;BME280;36021;48.670;6.184;2023-02-10T11:13:22;101169.47;;;24.24;36.75
50123;BME280;36021;48.670;6.184;2023-02-10T11:16:08;101176.81;;;22.86;33.07
50123;BME280;36021;48.670;6.184;2023-02-10T11:18:36;101169.47;;;21.29;36.81
50123;BME280;36021;48.670;6.184;2023-02-10T11:21:03;101173.25;;;23.42;39.99
50123;BME280;36021;48.670;6.184;2023-02-10T11:23:28;101163.56;;;22.56;32.75
50123;BME280;36021;48.670;6.184;2023-02-10T11:25:56;101165.13;;;23.49;35.63
50123;BME280;36021;48.670;6.184;2023-02-10T11:28:25;101156.66;;;23.41;33.54
50123;BME280;36021;48.670;6.184;2023-02-10T11:31:01;101160.84;;;24.12;32.80
50123;BME280;36021;48.670;6.184;2023-02-10T11:33:29;101158.53;;;24.31;31.50
50123;BME280;36021;48.670;6.184;2023-02-10T11:36:13;101154.00;;;25.31;30.57
50123;BME280;36021;48.670;6.184;2023-02-10T11:38:39;101149.00;;;24.53;29.31
50123;BME280;36021;48.670;6.184;2023-02-10T11:41:06;101157.00;;;21.22;33.19
50123;BME280;36021;48.670;6.184;2023-02-10T11:43:44;101158.41;;;22.18;33.18
50123;BME280;36021;48.670;6.184;2023-02-10T11:46:21;101140.63;;;23.84;32.25
50123;BME280;36021;48.670;6.184;2023-02-10T11:51:22;101142.84;;;21.27;35.54
50123;BME280;36021;48.670;6.184;2023-02-10T11:53:49;101147.31;;;21.01;40.50
50123;BME280;36021;48.670;6.184;2023-02-10T12:17:04;101136.59;;;17.16;63.20
50123;BME280;36021;48.670;6.184;2023-02-10T12:22:19;101146.03;;;16.31;64.29
50123;BME280;36021;48.670;6.184;2023-02-10T12:27:22;101137.78;;;17.93;60.86
50123;BME280;36021;48.670;6.184;2023-02-10T12:29:58;101135.44;;;18.34;52.13
50123;BME280;36021;48.670;6.184;2023-02-10T12:35:15;101125.56;;;19.36;52.87
50123;BME280;36021;48.670;6.184;2023-02-10T12:38:05;101132.91;;;18.37;47.87
50123;BME280;36021;48.670;6.184;2023-02-10T12:50:52;101141.69;;;17.48;69.91
50123;BME280;36021;48.670;6.184;2023-02-10T12:53:25;101135.44;;;17.22;66.21
50123;BME280;36021;48.670;6.184;2023-02-10T12:55:59;101139.13;;;16.03;73.40
50123;BME280;36021;48.670;6.184;2023-02-10T12:58:30;101141.34;;;16.16;73.32
50123;BME280;36021;48.670;6.184;2023-02-10T13:03:47;101137.88;;;15.18;83.11
50123;BME280;36021;48.670;6.184;2023-02-10T13:08:51;101140.06;;;13.48;94.64
50123;BME280;36021;48.670;6.184;2023-02-10T13:11:31;101141.63;;;13.13;100.00
50123;BME280;36021;48.670;6.184;2023-02-10T13:13:59;101134.09;;;12.65;100.00
50123;BME280;36021;48.670;6.184;2023-02-10T13:16:26;101129.88;;;12.40;100.00
50123;BME280;36021;48.670;6.184;2023-02-10T13:21:29;101114.63;;;13.03;100.00
50123;BME280;36021;48.670;6.184;2023-02-10T13:24:04;101114.22;;;12.46;100.00
50123;BME280;36021;48.670;6.184;2023-02-10T13:29:07;101118.41;;;12.92;100.00
50123;BME280;36021;48.670;6.184;2023-02-10T13:34:20;101126.72;;;13.40;100.00
50123;BME280;36021;48.670;6.184;2023-02-10T13:39:30;101140.38;;;12.38;100.00
50123;BME280;36021;48.670;6.184;2023-02-10T13:42:30;101131.94;;;12.50;100.00
50123;BME280;36021;48.670;6.184;2023-02-10T13:47:27;101126.13;;;12.46;100.00
50123;BME280;36021;48.670;6.184;2023-02-10T13:52:27;101136.84;;;12.43;100.00
50123;BME280;36021;48.670;6.184;2023-02-10T13:54:54;101138.09;;;11.97;100.00
50123;BME280;36021;48.670;6.184;2023-02-10T13:57:32;101137.66;;;11.72;100.00
50123;BME280;36021;48.670;6.184;2023-02-10T14:00:41;101127.41;;;11.56;100.00
50123;BME280;36021;48.670;6.184;2023-02-10T14:02:59;101140.59;;;11.82;100.00
50123;BME280;36021;48.670;6.184;2023-02-10T14:07:51;101136.47;;;11.68;100.00
50123;BME280;36021;48.670;6.184;2023-02-10T14:13:18;101131.16;;;11.49;100.00
50123;BME280;36021;48.670;6.184;2023-02-10T14:15:53;101132.19;;;11.60;100.00
50123;BME280;36021;48.670;6.184;2023-02-10T14:18:24;101124.28;;;11.35;100.00
50123;BME280;36021;48.670;6.184;2023-02-10T14:20:57;101130.25;;;11.61;100.00
50123;BME280;36021;48.670;6.184;2023-02-10T14:23:25;101123.41;;;11.63;100.00
50123;BME280;36021;48.670;6.184;2023-02-10T14:25:59;101117.69;;;11.53;100.00
50123;BME280;36021;48.670;6.184;2023-02-10T14:28:29;101117.50;;;11.43;100.00
50123;BME280;36021;48.670;6.184;2023-02-10T14:30:57;101113.22;;;11.19;100.00
50123;BME280;36021;48.670;6.184;2023-02-10T14:33:30;101111.69;;;11.11;100.00
50123;BME280;36021;48.670;6.184;2023-02-10T14:35:58;101120.78;;;11.40;100.00
50123;BME280;36021;48.670;6.184;2023-02-10T14:38:25;101117.97;;;11.52;100.00
50123;BME280;36021;48.670;6.184;2023-02-10T14:40:51;101116.16;;;11.45;100.00
50123;BME280;36021;48.670;6.184;2023-02-10T14:43:18;101124.91;;;11.54;100.00